createdAt,value
2019-03-22T00:02:23.043Z,51.80
2019-03-22T00:04:49.916Z,51.68
2019-03-22T00:07:16.651Z,51.87
2019-03-22T00:09:43.400Z,51.70
2019-03-22T00:12:10.185Z,52.02
2019-03-22T00:14:37.235Z,51.79
2019-03-22T00:17:04.089Z,51.81
2019-03-22T00:19:30.834Z,51.50
2019-03-22T00:21:57.550Z,51.61
2019-03-22T00:24:24.396Z,52.09
2019-03-22T00:26:51.135Z,52.05
2019-03-22T00:29:17.870Z,52.09
2019-03-22T00:31:44.778Z,52.15
2019-03-22T00:34:11.523Z,52.04
2019-03-22T00:36:38.266Z,52.05
2019-03-22T00:39:05.421Z,52.21
2019-03-22T00:41:32.166Z,52.32
2019-03-22T00:43:58.904Z,52.21
2019-03-22T00:46:25.785Z,52.45
2019-03-22T00:48:52.536Z,52.34
2019-03-22T00:51:19.303Z,52.30
2019-03-22T00:53:46.155Z,52.28
2019-03-22T00:56:12.916Z,52.32
2019-03-22T00:58:39.648Z,52.34
2019-03-22T01:01:06.544Z,52.49
2019-03-22T01:03:33.259Z,52.52
2019-03-22T01:05:59.991Z,52.73
2019-03-22T01:08:27.008Z,52.68
2019-03-22T01:10:53.756Z,52.53
2019-03-22T01:13:20.500Z,52.62
2019-03-22T01:15:47.364Z,52.75
2019-03-22T01:18:14.147Z,52.65
2019-03-22T01:20:40.877Z,52.64
2019-03-22T01:23:07.764Z,52.63
2019-03-22T01:25:34.493Z,52.65
2019-03-22T01:28:01.245Z,52.23
2019-03-22T01:30:28.110Z,52.09
2019-03-22T01:32:54.833Z,52.33
2019-03-22T01:35:21.619Z,52.66
2019-03-22T01:37:48.376Z,52.93
2019-03-22T01:40:15.776Z,52.79
2019-03-22T01:42:42.666Z,52.67
2019-03-22T01:45:12.290Z,52.69
2019-03-22T01:47:39.062Z,52.66
2019-03-22T01:50:10.339Z,52.53
2019-03-22T01:52:37.849Z,52.84
2019-03-22T01:55:04.943Z,52.79
2019-03-22T01:57:31.659Z,52.57
2019-03-22T01:59:58.410Z,52.55
2019-03-22T02:02:25.261Z,52.33
2019-03-22T02:04:52.084Z,52.67
2019-03-22T02:07:18.771Z,53.07
2019-03-22T02:09:45.527Z,53.16
2019-03-22T02:12:12.245Z,53.04
2019-03-22T02:14:39.121Z,53.02
2019-03-22T02:17:06.070Z,52.99
2019-03-22T02:19:32.815Z,52.88
2019-03-22T02:21:59.676Z,52.87
2019-03-22T02:24:26.423Z,52.81
2019-03-22T02:26:53.329Z,52.61
2019-03-22T02:29:20.057Z,52.66
2019-03-22T02:31:46.784Z,52.57
2019-03-22T02:34:13.662Z,52.10
2019-03-22T02:36:40.396Z,52.15
2019-03-22T02:39:07.135Z,52.65
2019-03-22T02:41:34.042Z,52.85
2019-03-22T02:44:00.787Z,53.28
2019-03-22T02:46:27.515Z,53.23
2019-03-22T02:48:54.404Z,53.16
2019-03-22T02:51:21.146Z,53.16
2019-03-22T02:53:47.884Z,52.93
2019-03-22T02:56:14.733Z,52.97
2019-03-22T02:58:41.625Z,53.26
2019-03-22T03:01:08.369Z,53.33
2019-03-22T03:03:35.161Z,53.54
2019-03-22T03:06:01.893Z,53.63
2019-03-22T03:08:28.627Z,53.73
2019-03-22T03:10:55.503Z,53.39
2019-03-22T03:13:22.216Z,53.45
2019-03-22T03:15:48.978Z,53.44
2019-03-22T03:18:15.749Z,53.50
2019-03-22T03:20:42.482Z,53.41
2019-03-22T03:23:09.234Z,53.28
2019-03-22T03:25:36.011Z,53.27
2019-03-22T03:28:02.746Z,53.29
2019-03-22T03:30:29.621Z,53.15
2019-03-22T03:32:56.346Z,53.19
2019-03-22T03:35:23.088Z,53.12
2019-03-22T03:37:49.975Z,53.01
2019-03-22T03:40:16.840Z,53.36
2019-03-22T03:42:43.725Z,53.12
2019-03-22T03:45:34.623Z,53.48
2019-03-22T03:48:04.503Z,53.62
2019-03-22T03:50:31.419Z,53.61
2019-03-22T03:52:58.185Z,53.93
2019-03-22T03:55:25.715Z,54.08
2019-03-22T03:57:52.569Z,54.19
2019-03-22T04:00:19.407Z,54.35
2019-03-22T04:02:46.124Z,54.50
2019-03-22T04:05:14.708Z,54.27
2019-03-22T04:07:41.435Z,54.09
2019-03-22T04:10:08.513Z,54.06
2019-03-22T04:12:35.227Z,53.78
2019-03-22T04:15:03.380Z,53.76
2019-03-22T04:17:30.215Z,53.37
2019-03-22T04:19:56.963Z,53.35
2019-03-22T04:22:23.704Z,53.43
2019-03-22T04:24:50.498Z,53.38
2019-03-22T04:27:17.218Z,53.68
2019-03-22T04:29:44.067Z,53.53
2019-03-22T04:32:10.816Z,53.76
2019-03-22T04:34:37.562Z,53.69
2019-03-22T04:37:04.428Z,53.47
2019-03-22T04:39:31.152Z,53.36
2019-03-22T04:41:57.953Z,53.45
2019-03-22T04:44:24.724Z,53.32
2019-03-22T04:46:52.742Z,53.33
2019-03-22T04:49:22.133Z,53.30
2019-03-22T04:51:50.353Z,53.33
2019-03-22T04:54:19.412Z,53.31
2019-03-22T04:56:48.289Z,53.08
2019-03-22T04:59:19.343Z,53.06
2019-03-22T05:01:50.395Z,53.26
2019-03-22T05:04:18.834Z,53.46
2019-03-22T05:06:48.361Z,53.32
2019-03-22T05:09:17.028Z,53.14
2019-03-22T05:11:46.577Z,52.98
2019-03-22T05:14:16.129Z,53.20
2019-03-22T05:16:47.298Z,53.31
2019-03-22T05:19:15.632Z,53.41
2019-03-22T05:21:43.863Z,53.80
2019-03-22T05:24:13.745Z,53.99
2019-03-22T05:26:41.114Z,53.67
2019-03-22T05:29:10.797Z,53.40
2019-03-22T05:31:49.076Z,53.47
2019-03-22T05:34:15.826Z,53.62
2019-03-22T05:36:42.541Z,53.87
2019-03-22T05:39:09.893Z,54.31
2019-03-22T05:41:36.706Z,54.64
2019-03-22T05:44:03.452Z,54.59
2019-03-22T05:46:30.240Z,54.56
2019-03-22T05:48:56.973Z,54.46
2019-03-22T05:51:23.844Z,54.08
2019-03-22T05:53:50.571Z,54.00
2019-03-22T05:56:17.295Z,53.71
2019-03-22T05:58:44.165Z,53.63
2019-03-22T06:01:10.914Z,53.62
2019-03-22T06:03:37.654Z,53.33
2019-03-22T06:06:04.565Z,52.97
2019-03-22T06:08:31.315Z,53.00
2019-03-22T06:10:58.052Z,53.09
2019-03-22T06:13:24.946Z,53.14
2019-03-22T06:15:51.682Z,53.03
2019-03-22T06:18:18.419Z,52.92
2019-03-22T06:20:45.218Z,52.82
2019-03-22T06:23:11.957Z,52.45
2019-03-22T06:25:38.855Z,52.49
2019-03-22T06:28:05.613Z,52.27
2019-03-22T06:30:32.351Z,52.31
2019-03-22T06:32:59.248Z,52.33
2019-03-22T06:35:25.973Z,52.44
2019-03-22T06:37:52.706Z,52.33
2019-03-22T06:40:19.608Z,52.24
2019-03-22T06:42:46.403Z,52.14
2019-03-22T06:45:13.157Z,51.79
2019-03-22T06:47:39.921Z,51.98
2019-03-22T06:50:06.781Z,52.41
2019-03-22T06:52:33.652Z,51.79
2019-03-22T06:55:00.476Z,51.74
2019-03-22T06:57:27.296Z,51.44
2019-03-22T07:00:05.604Z,51.20
2019-03-22T07:02:22.693Z,51.25
2019-03-22T07:04:49.430Z,51.15
2019-03-22T07:07:16.303Z,51.43
2019-03-22T07:09:43.038Z,50.65
2019-03-22T07:12:09.794Z,50.28
2019-03-22T07:14:36.644Z,50.14
2019-03-22T07:17:03.494Z,50.05
2019-03-22T07:19:30.245Z,49.79
2019-03-22T07:21:57.140Z,49.71
2019-03-22T07:24:23.904Z,49.55
2019-03-22T07:26:50.646Z,49.50
2019-03-22T07:29:17.501Z,49.96
2019-03-22T07:31:44.235Z,49.83
2019-03-22T07:34:10.974Z,49.68
2019-03-22T07:36:57.500Z,48.69
2019-03-22T07:39:24.215Z,48.61
2019-03-22T07:41:50.973Z,48.78
2019-03-22T07:44:17.917Z,48.91
2019-03-22T07:46:44.710Z,49.26
2019-03-22T07:49:11.419Z,49.18
2019-03-22T07:51:38.310Z,49.14
2019-03-22T07:54:05.038Z,48.78
2019-03-22T07:56:31.788Z,48.79
2019-03-22T07:59:18.388Z,48.83
2019-03-22T08:01:45.215Z,48.65
2019-03-22T08:04:11.953Z,48.39
2019-03-22T08:06:38.827Z,47.95
2019-03-22T08:09:05.667Z,47.51
2019-03-22T08:11:32.411Z,47.13
2019-03-22T08:13:59.200Z,46.68
2019-03-22T08:16:25.951Z,46.43
2019-03-22T08:18:52.843Z,46.25
2019-03-22T08:21:19.593Z,45.82
2019-03-22T08:23:46.326Z,44.98
2019-03-22T08:26:13.127Z,44.76
2019-03-22T08:28:39.880Z,43.01
2019-03-22T08:31:06.604Z,42.39
2019-03-22T08:33:33.609Z,42.20
2019-03-22T08:36:00.312Z,42.10
2019-03-22T08:38:27.060Z,41.25
2019-03-22T08:40:53.938Z,41.66
2019-03-22T08:43:20.707Z,41.09
2019-03-22T08:45:47.461Z,41.00
2019-03-22T08:48:14.346Z,40.11
2019-03-22T08:50:41.076Z,40.32
2019-03-22T08:53:07.786Z,40.35
2019-03-22T08:55:34.615Z,40.03
2019-03-22T08:58:01.351Z,39.54
2019-03-22T09:00:38.634Z,39.86
2019-03-22T09:02:56.767Z,38.91
2019-03-22T09:05:23.506Z,39.09
2019-03-22T09:07:50.307Z,39.01
2019-03-22T09:10:17.080Z,38.39
2019-03-22T09:12:43.980Z,38.52
2019-03-22T09:15:11.056Z,38.97
2019-03-22T09:17:37.758Z,42.96
2019-03-22T09:20:07.358Z,44.67
2019-03-22T09:22:34.107Z,45.51
2019-03-22T09:25:01.009Z,43.37
2019-03-22T09:27:27.779Z,41.38
2019-03-22T09:29:54.495Z,42.34
2019-03-22T09:32:21.387Z,42.21
2019-03-22T09:34:48.123Z,41.60
2019-03-22T09:37:14.903Z,40.82
2019-03-22T09:39:41.794Z,39.89
2019-03-22T09:42:08.543Z,39.55
2019-03-22T09:44:43.207Z,39.28
2019-03-22T09:47:04.099Z,37.66
2019-03-22T09:49:30.842Z,39.20
2019-03-22T09:51:57.587Z,39.57
2019-03-22T09:54:24.482Z,39.89
2019-03-22T09:56:51.239Z,38.60
2019-03-22T09:59:17.975Z,39.23
2019-03-22T10:01:44.847Z,42.08
2019-03-22T10:04:12.602Z,42.50
2019-03-22T10:06:39.317Z,41.51
2019-03-22T10:09:06.198Z,42.15
2019-03-22T10:11:32.939Z,40.75
2019-03-22T10:13:59.677Z,42.33
2019-03-22T10:16:26.600Z,42.89
2019-03-22T10:18:53.319Z,42.18
2019-03-22T10:21:22.606Z,41.16
2019-03-22T10:23:48.737Z,41.78
2019-03-22T10:26:15.535Z,41.28
2019-03-22T10:28:42.257Z,39.27
2019-03-22T10:31:09.027Z,39.91
2019-03-22T10:33:35.766Z,40.30
2019-03-22T10:36:02.750Z,40.89
2019-03-22T10:38:31.713Z,40.93
2019-03-22T10:40:58.052Z,41.16
2019-03-22T10:43:24.820Z,40.78
2019-03-22T10:45:51.642Z,40.26
2019-03-22T10:48:18.497Z,38.86
2019-03-22T10:50:45.261Z,37.65
2019-03-22T10:53:11.972Z,35.31
2019-03-22T10:55:38.855Z,31.16
2019-03-22T10:58:19.771Z,30.60
2019-03-22T11:00:34.139Z,26.45
2019-03-22T11:03:01.005Z,23.67
2019-03-22T11:05:27.766Z,23.67
2019-03-22T11:07:54.477Z,22.38
2019-03-22T11:10:21.342Z,23.86
2019-03-22T11:12:48.073Z,24.16
2019-03-22T11:15:15.027Z,22.40
2019-03-22T11:17:41.819Z,22.11
2019-03-22T11:20:12.365Z,22.19
2019-03-22T11:22:39.381Z,21.47
2019-03-22T11:25:07.227Z,21.02
2019-03-22T11:27:33.976Z,20.17
2019-03-22T11:30:00.850Z,21.94
2019-03-22T11:32:27.602Z,21.63
2019-03-22T11:34:54.330Z,21.41
2019-03-22T11:37:21.230Z,21.57
2019-03-22T11:39:48.000Z,20.57
2019-03-22T11:42:14.871Z,21.24
2019-03-22T11:44:42.683Z,21.91
2019-03-22T11:47:09.490Z,21.94
2019-03-22T11:49:36.510Z,22.83
2019-03-22T11:52:03.631Z,22.72
2019-03-22T11:54:30.395Z,22.52
2019-03-22T11:56:57.379Z,22.84
2019-03-22T11:59:24.132Z,22.50
2019-03-22T12:01:50.899Z,23.18
2019-03-22T12:04:17.785Z,23.03
2019-03-22T12:06:47.255Z,24.09
2019-03-22T12:09:13.997Z,24.11
2019-03-22T12:11:42.132Z,23.36
2019-03-22T12:14:09.144Z,23.81
2019-03-22T12:16:36.023Z,24.37
2019-03-22T12:19:02.873Z,24.71
2019-03-22T12:21:29.607Z,24.72
2019-03-22T12:23:56.486Z,25.55
2019-03-22T12:26:23.236Z,24.01
2019-03-22T12:28:49.972Z,25.28
2019-03-22T12:31:16.862Z,25.35
2019-03-22T12:33:43.611Z,25.48
2019-03-22T12:36:10.845Z,25.87
2019-03-22T12:38:37.716Z,25.31
2019-03-22T12:41:04.555Z,25.91
2019-03-22T12:43:31.282Z,26.16
2019-03-22T12:45:58.531Z,24.49
2019-03-22T12:48:25.338Z,21.05
2019-03-22T12:50:52.306Z,23.96
2019-03-22T12:53:19.212Z,25.57
2019-03-22T12:55:45.971Z,25.60
2019-03-22T12:58:12.692Z,25.63
2019-03-22T13:00:39.590Z,23.97
2019-03-22T13:03:06.345Z,25.27
2019-03-22T13:05:33.105Z,25.93
2019-03-22T13:07:59.998Z,25.57
2019-03-22T13:10:28.066Z,26.65
2019-03-22T13:12:54.900Z,25.45
2019-03-22T13:15:21.809Z,25.75
2019-03-22T13:17:48.641Z,25.25
2019-03-22T13:20:15.786Z,25.48
2019-03-22T13:22:42.705Z,25.71
2019-03-22T13:25:11.664Z,25.56
2019-03-22T13:27:38.398Z,26.82
2019-03-22T13:30:12.337Z,26.24
2019-03-22T13:32:39.071Z,27.31
2019-03-22T13:35:05.814Z,27.64
2019-03-22T13:37:35.304Z,27.50
2019-03-22T13:40:05.824Z,26.94
2019-03-22T13:42:32.502Z,25.46
2019-03-22T13:44:59.385Z,27.90
2019-03-22T13:47:26.158Z,28.85
2019-03-22T13:49:52.920Z,27.81
2019-03-22T13:52:19.778Z,28.14
2019-03-22T13:54:46.533Z,27.02
2019-03-22T13:57:13.362Z,27.34
2019-03-22T13:59:44.213Z,28.44
2019-03-22T14:02:12.558Z,28.41
2019-03-22T14:04:40.198Z,29.38
2019-03-22T14:07:07.031Z,29.29
2019-03-22T14:09:33.759Z,28.83
2019-03-22T14:12:00.662Z,28.78
2019-03-22T14:14:27.413Z,28.89
2019-03-22T14:16:54.201Z,28.12
2019-03-22T14:19:21.038Z,28.65
2019-03-22T14:21:47.950Z,29.11
2019-03-22T14:24:14.677Z,28.57
2019-03-22T14:26:41.566Z,27.99
2019-03-22T14:29:08.318Z,28.00
2019-03-22T14:31:35.058Z,28.07
2019-03-22T14:34:01.986Z,27.19
2019-03-22T14:36:48.751Z,27.21
2019-03-22T14:39:15.617Z,26.81
2019-03-22T14:41:42.455Z,27.51
2019-03-22T14:44:09.194Z,27.09
2019-03-22T14:46:36.018Z,27.57
2019-03-22T14:49:02.755Z,27.15
2019-03-22T14:51:29.683Z,28.06
2019-03-22T14:53:56.432Z,28.07
2019-03-22T14:56:23.166Z,29.54
2019-03-22T14:58:49.942Z,28.08
2019-03-22T15:01:16.693Z,29.28
2019-03-22T15:03:43.585Z,30.31
2019-03-22T15:06:10.334Z,30.44
2019-03-22T15:08:37.057Z,28.98
2019-03-22T15:11:03.932Z,30.21
2019-03-22T15:13:30.646Z,29.58
2019-03-22T15:15:57.388Z,30.03
2019-03-22T15:18:24.274Z,29.82
2019-03-22T15:20:51.026Z,30.67
2019-03-22T15:23:17.739Z,31.70
2019-03-22T15:25:44.607Z,31.45
2019-03-22T15:28:11.360Z,30.73
2019-03-22T15:30:38.101Z,30.20
2019-03-22T15:33:04.978Z,29.63
2019-03-22T15:35:31.848Z,30.83
2019-03-22T15:37:58.535Z,31.71
2019-03-22T15:40:25.447Z,31.07
2019-03-22T15:42:52.189Z,31.42
2019-03-22T15:45:18.907Z,30.80
2019-03-22T15:47:45.786Z,31.27
2019-03-22T15:50:14.265Z,32.38
2019-03-22T15:52:41.145Z,33.05
2019-03-22T15:55:07.954Z,33.80
2019-03-22T15:57:34.710Z,33.73
2019-03-22T16:00:01.625Z,34.71
2019-03-22T16:02:28.415Z,34.78
2019-03-22T16:04:55.147Z,35.25
2019-03-22T16:07:22.062Z,34.94
2019-03-22T16:09:48.795Z,36.34
2019-03-22T16:12:15.552Z,37.26
2019-03-22T16:14:42.423Z,36.72
2019-03-22T16:17:09.150Z,37.65
2019-03-22T16:19:35.898Z,37.11
2019-03-22T16:22:02.871Z,37.24
2019-03-22T16:24:29.679Z,38.26
2019-03-22T16:26:56.355Z,38.88
2019-03-22T16:29:23.114Z,39.59
2019-03-22T16:31:49.853Z,39.90
2019-03-22T16:34:16.738Z,39.18
2019-03-22T16:36:43.513Z,39.15
2019-03-22T16:39:10.260Z,39.70
2019-03-22T16:41:37.019Z,40.17
2019-03-22T16:44:03.761Z,39.43
2019-03-22T16:46:30.739Z,39.36
2019-03-22T16:48:57.521Z,39.76
2019-03-22T16:51:24.254Z,40.51
2019-03-22T16:53:51.166Z,40.50
2019-03-22T16:56:19.695Z,41.03
2019-03-22T16:58:46.433Z,41.25
2019-03-22T17:01:13.224Z,41.63
2019-03-22T17:03:39.967Z,41.86
2019-03-22T17:06:06.876Z,41.82
2019-03-22T17:08:37.451Z,42.07
2019-03-22T17:11:04.836Z,42.20
2019-03-22T17:13:31.610Z,42.30
2019-03-22T17:15:58.331Z,41.96
2019-03-22T17:18:25.256Z,41.94
2019-03-22T17:20:52.019Z,42.93
2019-03-22T17:23:18.766Z,43.00
2019-03-22T17:25:45.709Z,43.61
2019-03-22T17:28:12.443Z,42.97
2019-03-22T17:30:39.176Z,43.28
2019-03-22T17:33:07.900Z,43.67
2019-03-22T17:35:34.737Z,44.09
2019-03-22T17:38:01.469Z,44.37
2019-03-22T17:40:28.325Z,44.34
2019-03-22T17:42:55.048Z,43.46
2019-03-22T17:45:21.935Z,44.04
2019-03-22T17:47:48.720Z,44.19
2019-03-22T17:50:16.032Z,44.15
2019-03-22T17:52:42.931Z,44.16
2019-03-22T17:55:11.671Z,44.46
2019-03-22T17:57:38.418Z,44.47
2019-03-22T18:00:09.665Z,45.35
2019-03-22T18:02:36.694Z,45.84
2019-03-22T18:05:07.549Z,46.17
2019-03-22T18:07:34.441Z,46.11
2019-03-22T18:10:01.388Z,46.06
2019-03-22T18:12:28.519Z,46.22
2019-03-22T18:14:55.401Z,46.38
2019-03-22T18:17:22.132Z,46.55
2019-03-22T18:19:48.867Z,46.28
2019-03-22T18:22:15.757Z,45.94
2019-03-22T18:24:42.481Z,46.26
2019-03-22T18:27:09.234Z,46.45
2019-03-22T18:29:36.010Z,46.64
2019-03-22T18:32:02.761Z,46.95
2019-03-22T18:34:34.400Z,46.98
2019-03-22T18:36:58.244Z,46.91
2019-03-22T18:39:24.990Z,46.76
2019-03-22T18:41:51.896Z,46.76
2019-03-22T18:44:18.646Z,46.93
2019-03-22T18:46:45.811Z,46.83
2019-03-22T18:49:13.028Z,47.24
2019-03-22T18:51:39.749Z,47.50
2019-03-22T18:54:06.498Z,46.81
2019-03-22T18:56:33.340Z,47.41
2019-03-22T18:59:00.060Z,47.63
2019-03-22T19:01:26.949Z,47.71
2019-03-22T19:03:53.702Z,47.67
2019-03-22T19:06:21.882Z,47.46
2019-03-22T19:08:48.944Z,47.59
2019-03-22T19:11:15.657Z,47.97
2019-03-22T19:13:42.409Z,48.00
2019-03-22T19:16:09.186Z,48.13
2019-03-22T19:18:36.217Z,48.34
2019-03-22T19:21:22.858Z,48.39
2019-03-22T19:23:52.125Z,48.51
2019-03-22T19:26:18.821Z,48.82
2019-03-22T19:28:45.717Z,49.08
2019-03-22T19:31:12.614Z,49.29
2019-03-22T19:33:39.344Z,49.23
2019-03-22T19:36:06.225Z,49.05
2019-03-22T19:38:32.966Z,48.45
2019-03-22T19:40:59.878Z,48.64
2019-03-22T19:43:28.643Z,49.28
2019-03-22T19:45:55.304Z,49.31
2019-03-22T19:48:22.080Z,49.52
2019-03-22T19:50:48.805Z,49.41
2019-03-22T19:53:15.678Z,49.44
2019-03-22T19:55:42.579Z,49.81
2019-03-22T19:58:09.318Z,49.64
2019-03-22T20:00:36.215Z,49.79
2019-03-22T20:03:02.970Z,49.96
2019-03-22T20:05:32.807Z,49.76
2019-03-22T20:08:00.691Z,49.98
2019-03-22T20:10:27.511Z,50.15
2019-03-22T20:12:54.480Z,50.36
2019-03-22T20:15:21.261Z,50.46
2019-03-22T20:17:47.999Z,50.26
2019-03-22T20:20:14.999Z,49.99
2019-03-22T20:22:41.734Z,50.16
2019-03-22T20:25:09.276Z,50.42
2019-03-22T20:27:36.135Z,50.46
2019-03-22T20:30:07.506Z,50.25
2019-03-22T20:32:34.270Z,50.18
2019-03-22T20:35:01.247Z,50.50
2019-03-22T20:37:27.983Z,50.53
2019-03-22T20:39:54.713Z,50.60
2019-03-22T20:42:21.488Z,50.70
2019-03-22T20:44:48.240Z,50.68
2019-03-22T20:47:15.104Z,50.67
2019-03-22T20:49:41.833Z,50.64
2019-03-22T20:52:08.597Z,50.57
2019-03-22T20:54:35.476Z,50.55
2019-03-22T20:57:02.251Z,50.54
2019-03-22T20:59:29.006Z,50.65
2019-03-22T21:01:55.765Z,50.52
2019-03-22T21:04:22.502Z,50.65
2019-03-22T21:06:49.451Z,50.62
2019-03-22T21:09:16.163Z,50.49
2019-03-22T21:11:42.881Z,50.79
2019-03-22T21:14:09.769Z,50.92
2019-03-22T21:16:36.517Z,51.04
2019-03-22T21:19:03.272Z,51.17
2019-03-22T21:21:36.248Z,51.33
2019-03-22T21:23:58.568Z,51.54
2019-03-22T21:26:25.451Z,51.44
2019-03-22T21:28:52.199Z,51.69
2019-03-22T21:31:18.923Z,51.98
2019-03-22T21:33:45.804Z,51.81
2019-03-22T21:36:12.551Z,51.78
2019-03-22T21:38:39.282Z,51.85
2019-03-22T21:41:06.083Z,52.11
2019-03-22T21:43:32.811Z,52.11
2019-03-22T21:45:59.691Z,52.18
2019-03-22T21:48:26.419Z,52.40
2019-03-22T21:50:53.152Z,52.41
2019-03-22T21:53:20.041Z,52.37
2019-03-22T21:55:46.789Z,52.56
2019-03-22T21:58:13.578Z,52.37
2019-03-22T22:00:40.356Z,52.09
2019-03-22T22:03:07.096Z,52.15
2019-03-22T22:05:34.002Z,52.18
2019-03-22T22:08:00.749Z,52.34
2019-03-22T22:10:27.496Z,52.07
2019-03-22T22:12:54.269Z,52.26
2019-03-22T22:15:21.017Z,52.17
2019-03-22T22:17:47.902Z,52.35
2019-03-22T22:20:14.621Z,52.54
2019-03-22T22:22:41.452Z,52.44
2019-03-22T22:25:08.938Z,52.53
2019-03-22T22:27:35.678Z,52.53
2019-03-22T22:30:06.833Z,52.54
2019-03-22T22:32:33.626Z,52.94
2019-03-22T22:35:00.492Z,52.90
2019-03-22T22:37:27.311Z,52.80
2019-03-22T22:39:54.069Z,52.94
2019-03-22T22:42:20.815Z,52.81
2019-03-22T22:44:47.718Z,52.58
2019-03-22T22:47:14.454Z,52.61
2019-03-22T22:49:41.204Z,52.63
2019-03-22T22:52:08.388Z,52.60
2019-03-22T22:54:35.115Z,52.34
2019-03-22T22:57:01.846Z,52.19
2019-03-22T22:59:28.674Z,52.34
2019-03-22T23:01:55.417Z,52.28
2019-03-22T23:04:22.153Z,51.79
2019-03-22T23:06:48.945Z,51.77
2019-03-22T23:09:15.661Z,51.92
2019-03-22T23:11:42.390Z,52.08
2019-03-22T23:14:09.249Z,52.00
2019-03-22T23:16:36.000Z,52.20
2019-03-22T23:19:02.758Z,52.42
2019-03-22T23:21:29.632Z,52.34
2019-03-22T23:23:56.392Z,52.73
2019-03-22T23:26:23.146Z,53.01
2019-03-22T23:28:50.014Z,52.62
2019-03-22T23:31:16.740Z,52.56
2019-03-22T23:33:43.465Z,52.56
2019-03-22T23:36:19.756Z,53.00
2019-03-22T23:38:38.797Z,53.37
2019-03-22T23:41:05.705Z,53.49
2019-03-22T23:43:32.432Z,53.41
2019-03-22T23:45:59.209Z,53.39
2019-03-22T23:48:26.115Z,53.30
2019-03-22T23:50:52.862Z,53.09
2019-03-22T23:53:19.597Z,53.05
2019-03-22T23:55:46.456Z,53.10
2019-03-22T23:58:13.200Z,52.85
